Time;durP1;ratioP1;P1;durP2;ratioP2;P2;SDS_P1;SDS_P2;PMS_P1;PMS_P2;Temp;Humidity;BMP_temperature;BMP_pressure;BME280_temperature;BME280_humidity;BME280_pressure;Samples;Min_cycle;Max_cycle;Signal;HPM_P1;HPM_P2
2021/10/14 00:01:04;;;;;;;15.82;6.22;;;9.80;99.90;;;;;;5051830;28;20044;-47
2021/10/14 00:03:30;;;;;;;12.90;7.05;;;9.80;99.90;;;;;;5051894;28;20036;-47
2021/10/14 00:05:55;;;;;;;14.48;6.93;;;9.80;99.90;;;;;;5069881;28;20474;-47
2021/10/14 00:08:21;;;;;;;12.80;6.13;;;9.80;99.90;;;;;;5068950;28;20043;-50
2021/10/14 00:10:46;;;;;;;9.38;5.88;;;9.80;99.90;;;;;;5069637;28;20036;-48
2021/10/14 00:13:12;;;;;;;12.10;6.32;;;9.80;99.90;;;;;;5069671;28;20426;-47
2021/10/14 00:15:37;;;;;;;12.77;7.07;;;9.80;99.90;;;;;;5069804;28;20090;-48
2021/10/14 00:18:04;;;;;;;12.85;7.55;;;9.80;99.90;;;;;;5068912;28;20150;-47
2021/10/14 00:20:29;;;;;;;11.75;7.20;;;9.80;99.90;;;;;;5069686;28;20029;-49
2021/10/14 00:22:55;;;;;;;13.20;7.30;;;9.80;99.90;;;;;;5069528;28;20110;-46
2021/10/14 00:25:22;;;;;;;12.80;7.40;;;9.70;99.90;;;;;;5069626;28;20116;-47
2021/10/14 00:27:48;;;;;;;14.45;7.30;;;9.80;99.90;;;;;;5068989;28;20090;-48
2021/10/14 00:30:14;;;;;;;9.75;6.55;;;9.70;99.90;;;;;;5069387;28;20040;-47
2021/10/14 00:32:39;;;;;;;8.68;5.97;;;9.70;99.90;;;;;;5069651;28;20105;-47
2021/10/14 00:35:05;;;;;;;11.63;5.80;;;9.70;99.90;;;;;;5069471;28;20463;-50
2021/10/14 00:37:31;;;;;;;8.82;5.03;;;9.70;99.90;;;;;;5068777;28;20024;-47
2021/10/14 00:39:56;;;;;;;9.48;5.47;;;9.70;99.90;;;;;;5051109;28;20390;-47
2021/10/14 00:42:22;;;;;;;6.82;4.65;;;9.70;99.90;;;;;;5069076;28;20044;-47
2021/10/14 00:44:54;;;;;;;7.28;4.70;;;9.70;99.90;;;;;;5069186;28;20033;-47
2021/10/14 00:47:25;;;;;;;8.07;4.97;;;9.70;99.90;;;;;;5068425;28;20040;-46
2021/10/14 00:49:51;;;;;;;11.00;5.35;;;9.80;99.90;;;;;;5069221;28;20219;-47
2021/10/14 00:52:16;;;;;;;9.65;5.90;;;9.70;99.90;;;;;;5069063;28;20044;-51
2021/10/14 00:54:43;;;;;;;7.63;6.05;;;9.70;99.90;;;;;;5069154;28;20024;-47
2021/10/14 00:57:10;;;;;;;8.65;6.20;;;9.70;99.90;;;;;;5068294;28;20037;-47
2021/10/14 00:59:36;;;;;;;9.80;6.35;;;9.70;99.90;;;;;;5068594;28;20401;-47
2021/10/14 01:02:02;;;;;;;10.77;6.38;;;9.70;99.90;;;;;;5068889;28;20185;-47
2021/10/14 01:04:28;;;;;;;9.05;6.70;;;9.70;99.90;;;;;;5068980;28;20035;-47
2021/10/14 01:06:53;;;;;;;11.23;5.88;;;9.80;99.90;;;;;;5068699;28;20135;-47
2021/10/14 01:09:20;;;;;;;10.00;5.70;;;9.70;99.90;;;;;;5067711;28;20047;-47
2021/10/14 01:11:45;;;;;;;8.90;5.47;;;9.70;99.90;;;;;;5051003;28;20120;-47
2021/10/14 01:14:11;;;;;;;8.48;5.72;;;9.80;99.90;;;;;;5069055;28;20119;-47
2021/10/14 01:16:41;;;;;;;7.65;5.55;;;9.70;99.90;;;;;;5068857;28;20147;-48
2021/10/14 01:19:08;;;;;;;7.40;4.32;;;9.80;99.90;;;;;;5068199;28;20036;-47
2021/10/14 01:21:34;;;;;;;8.13;4.57;;;9.70;99.90;;;;;;5068552;28;20119;-50
2021/10/14 01:24:00;;;;;;;5.22;3.70;;;9.70;99.90;;;;;;5050491;28;20158;-47
2021/10/14 01:26:26;;;;;;;4.63;3.50;;;9.80;99.90;;;;;;5068467;28;20059;-47
2021/10/14 01:28:52;;;;;;;5.85;3.58;;;9.70;99.90;;;;;;5067773;28;20040;-48
2021/10/14 01:31:17;;;;;;;5.00;3.33;;;9.70;99.90;;;;;;5068460;28;20036;-48
2021/10/14 01:33:43;;;;;;;7.38;3.15;;;9.70;99.90;;;;;;5068558;28;20445;-47
2021/10/14 01:36:08;;;;;;;3.83;3.15;;;9.70;99.90;;;;;;5068315;28;20115;-49
2021/10/14 01:38:34;;;;;;;3.80;2.97;;;9.70;99.90;;;;;;5067677;28;20040;-47
2021/10/14 01:41:00;;;;;;;3.80;3.35;;;9.70;99.90;;;;;;5068244;28;20371;-46
2021/10/14 01:43:26;;;;;;;8.60;3.40;;;9.70;99.90;;;;;;5068234;28;20028;-47
2021/10/14 01:45:51;;;;;;;3.85;2.95;;;9.70;99.90;;;;;;5068368;28;20046;-48
2021/10/14 01:48:17;;;;;;;4.63;3.10;;;9.70;99.90;;;;;;5049619;28;20039;-48
2021/10/14 01:50:43;;;;;;;3.63;3.15;;;9.60;99.90;;;;;;5068310;28;20048;-49
2021/10/14 01:53:09;;;;;;;3.35;2.83;;;9.70;99.90;;;;;;5068892;28;20074;-47
2021/10/14 01:55:34;;;;;;;4.80;3.00;;;9.70;99.90;;;;;;5072150;28;20082;-48
2021/10/14 01:58:00;;;;;;;3.13;2.83;;;9.60;99.90;;;;;;5071507;28;20016;-50
2021/10/14 02:00:25;;;;;;;6.00;3.50;;;9.60;99.90;;;;;;5054166;28;20690;-47
2021/10/14 02:02:51;;;;;;;3.40;2.83;;;9.70;99.90;;;;;;5072492;28;20563;-50
2021/10/14 02:05:16;;;;;;;3.90;2.72;;;9.70;99.90;;;;;;5072376;28;20524;-47
2021/10/14 02:07:42;;;;;;;4.22;3.20;;;9.70;99.90;;;;;;5071528;28;20041;-49
2021/10/14 02:10:08;;;;;;;3.58;2.55;;;9.70;99.90;;;;;;5070373;28;20033;-47
2021/10/14 02:12:33;;;;;;;3.63;2.72;;;9.70;99.90;;;;;;5070656;28;20176;-47
2021/10/14 02:14:59;;;;;;;9.02;3.85;;;9.70;99.90;;;;;;5072134;28;20032;-48
2021/10/14 02:17:24;;;;;;;3.85;3.15;;;9.70;99.90;;;;;;5071533;28;20025;-47
2021/10/14 02:19:50;;;;;;;4.75;3.05;;;9.70;99.90;;;;;;5071909;28;20025;-48
2021/10/14 02:22:15;;;;;;;4.60;3.53;;;9.70;99.90;;;;;;5071798;28;20041;-47
2021/10/14 02:24:41;;;;;;;4.30;3.17;;;9.70;99.90;;;;;;5053469;28;20043;-50
2021/10/14 02:27:06;;;;;;;11.35;4.60;;;9.70;99.90;;;;;;5070991;28;20040;-46
2021/10/14 02:29:32;;;;;;;6.07;4.10;;;9.70;99.90;;;;;;5053779;28;20028;-47
2021/10/14 02:31:57;;;;;;;5.15;4.47;;;9.70;99.90;;;;;;5053613;28;20044;-47
2021/10/14 02:34:22;;;;;;;4.50;4.03;;;9.70;99.90;;;;;;5053606;28;20035;-47
2021/10/14 02:36:48;;;;;;;6.72;5.18;;;9.70;99.90;;;;;;5071561;28;20478;-48
2021/10/14 02:39:13;;;;;;;6.63;5.18;;;9.70;99.90;;;;;;5065070;28;20056;-47
2021/10/14 02:41:39;;;;;;;6.38;5.05;;;9.80;99.90;;;;;;5071766;28;20063;-47
2021/10/14 02:44:05;;;;;;;8.95;5.47;;;9.70;99.90;;;;;;5071375;28;20033;-50
2021/10/14 02:46:30;;;;;;;6.22;5.45;;;9.70;99.90;;;;;;5071259;28;20533;-48
2021/10/14 02:48:56;;;;;;;7.25;6.35;;;9.80;99.90;;;;;;5070928;28;20051;-47
2021/10/14 02:51:22;;;;;;;8.65;6.90;;;9.80;99.90;;;;;;5071144;28;20033;-46
2021/10/14 02:53:47;;;;;;;7.32;6.50;;;9.80;99.90;;;;;;5053171;28;20033;-49
2021/10/14 02:56:13;;;;;;;10.25;7.50;;;9.80;99.90;;;;;;5071122;28;20021;-47
2021/10/14 02:58:38;;;;;;;12.52;7.70;;;9.80;99.90;;;;;;5070492;28;20032;-47
2021/10/14 03:01:03;;;;;;;9.20;7.53;;;9.80;99.90;;;;;;5071282;28;20406;-48
2021/10/14 03:03:31;;;;;;;11.43;7.72;;;9.80;99.90;;;;;;5053198;28;20036;-47
2021/10/14 03:05:56;;;;;;;10.70;8.18;;;9.80;99.90;;;;;;5069929;28;20040;-47
2021/10/14 03:08:22;;;;;;;11.95;8.75;;;9.80;99.90;;;;;;5070755;28;20035;-50
2021/10/14 03:10:47;;;;;;;13.85;8.82;;;9.80;99.90;;;;;;5070705;28;20064;-48
2021/10/14 03:13:14;;;;;;;13.18;9.40;;;9.80;99.90;;;;;;5071284;28;20266;-47
2021/10/14 03:15:39;;;;;;;14.23;10.65;;;9.90;99.90;;;;;;5071683;28;20357;-46
2021/10/14 03:18:05;;;;;;;18.17;11.50;;;9.90;99.90;;;;;;5070587;28;20106;-46
2021/10/14 03:20:30;;;;;;;17.75;12.20;;;9.80;99.90;;;;;;5070869;28;20040;-46
2021/10/14 03:22:56;;;;;;;17.80;12.27;;;9.80;99.90;;;;;;5070798;28;20493;-46
2021/10/14 03:25:21;;;;;;;18.27;12.70;;;9.80;99.90;;;;;;5070363;28;20490;-46
2021/10/14 03:27:47;;;;;;;21.27;13.25;;;9.90;99.90;;;;;;5070003;28;20067;-47
2021/10/14 03:30:12;;;;;;;21.90;15.07;;;9.90;99.90;;;;;;5070949;28;20486;-47
2021/10/14 03:32:38;;;;;;;27.08;17.08;;;9.90;99.90;;;;;;5070463;28;20036;-47
2021/10/14 03:35:04;;;;;;;25.67;17.15;;;9.90;99.90;;;;;;5070608;28;20045;-47
2021/10/14 03:37:29;;;;;;;26.90;17.52;;;9.90;99.90;;;;;;5069869;28;20025;-47
2021/10/14 03:39:55;;;;;;;30.17;17.70;;;10.00;99.90;;;;;;5069985;28;20025;-50
2021/10/14 03:42:21;;;;;;;30.05;19.75;;;10.00;99.90;;;;;;5052294;28;20036;-46
2021/10/14 03:44:46;;;;;;;28.02;18.52;;;10.00;99.90;;;;;;5052674;28;20043;-47
2021/10/14 03:47:12;;;;;;;30.05;20.25;;;10.00;99.90;;;;;;5069963;28;20395;-48
2021/10/14 03:49:37;;;;;;;33.25;19.83;;;10.00;99.90;;;;;;5052261;28;20040;-48
2021/10/14 03:52:03;;;;;;;29.77;20.35;;;10.00;99.90;;;;;;5070242;28;20044;-49
2021/10/14 03:54:29;;;;;;;32.30;19.52;;;10.00;99.90;;;;;;5069720;28;20543;-46
2021/10/14 03:56:54;;;;;;;29.83;19.98;;;10.00;99.90;;;;;;5069734;28;20204;-46
2021/10/14 03:59:20;;;;;;;32.33;20.13;;;10.10;99.90;;;;;;5069445;28;20120;-47
2021/10/14 04:01:46;;;;;;;32.08;20.40;;;10.10;99.90;;;;;;5070031;28;20071;-46
2021/10/14 04:04:11;;;;;;;32.72;20.98;;;10.10;99.90;;;;;;5069950;28;20028;-46
2021/10/14 04:06:37;;;;;;;38.90;22.05;;;10.10;99.90;;;;;;5069823;28;20123;-46
2021/10/14 04:09:02;;;;;;;38.38;22.05;;;10.10;99.90;;;;;;5068714;28;20032;-47
2021/10/14 04:11:27;;;;;;;35.97;23.05;;;10.10;99.90;;;;;;5069847;28;20052;-46
2021/10/14 04:13:53;;;;;;;35.33;22.83;;;10.10;99.90;;;;;;5069754;28;20036;-49
2021/10/14 04:16:19;;;;;;;33.72;20.55;;;10.20;99.90;;;;;;5069563;28;20031;-49
2021/10/14 04:18:45;;;;;;;35.05;23.05;;;10.20;99.90;;;;;;5069121;28;20041;-48
2021/10/14 04:21:11;;;;;;;39.75;22.75;;;10.20;99.90;;;;;;5068784;28;20514;-46
2021/10/14 04:23:36;;;;;;;36.17;22.48;;;10.20;99.90;;;;;;5069261;28;20036;-49
2021/10/14 04:26:03;;;;;;;40.47;24.00;;;10.20;99.90;;;;;;5069293;28;20028;-46
2021/10/14 04:28:29;;;;;;;38.55;23.58;;;10.20;99.90;;;;;;5068705;28;20115;-48
2021/10/14 04:30:54;;;;;;;37.42;23.17;;;10.30;99.90;;;;;;5069636;28;20498;-50
2021/10/14 04:33:20;;;;;;;40.28;23.40;;;10.20;99.90;;;;;;5069277;28;20045;-49
2021/10/14 04:35:46;;;;;;;40.55;23.17;;;10.30;99.90;;;;;;5069404;28;20043;-47
2021/10/14 04:38:11;;;;;;;37.00;22.60;;;10.30;99.90;;;;;;5050922;28;20387;-48
2021/10/14 04:40:37;;;;;;;37.63;21.77;;;10.30;99.90;;;;;;5069059;28;20055;-49
2021/10/14 04:43:02;;;;;;;38.13;21.80;;;10.30;99.90;;;;;;5051315;28;20143;-50
2021/10/14 04:45:28;;;;;;;34.90;21.00;;;10.30;99.90;;;;;;5069149;28;20043;-50
2021/10/14 04:47:53;;;;;;;37.47;21.63;;;10.30;99.90;;;;;;5050684;28;20521;-48
2021/10/14 04:50:19;;;;;;;36.50;20.70;;;10.30;99.90;;;;;;5069128;28;20056;-50
2021/10/14 04:52:44;;;;;;;39.03;21.90;;;10.40;99.90;;;;;;5051070;28;20032;-47
2021/10/14 04:55:10;;;;;;;39.70;23.05;;;10.40;99.90;;;;;;5068803;28;20029;-47
2021/10/14 04:57:35;;;;;;;43.50;24.30;;;10.40;99.90;;;;;;5068300;28;20033;-48
2021/10/14 05:00:01;;;;;;;39.42;23.02;;;10.40;99.90;;;;;;5068863;28;20098;-48
2021/10/14 05:02:27;;;;;;;45.00;24.08;;;10.40;99.90;;;;;;5068877;28;20037;-47
2021/10/14 05:04:52;;;;;;;41.08;23.20;;;10.40;99.90;;;;;;5069027;28;20112;-50
2021/10/14 05:07:18;;;;;;;42.63;24.42;;;10.40;99.90;;;;;;5068125;28;20060;-48
2021/10/14 05:09:43;;;;;;;43.08;23.90;;;10.40;99.90;;;;;;5068297;28;20089;-47
2021/10/14 05:12:09;;;;;;;44.47;25.17;;;10.40;99.90;;;;;;5068344;28;20040;-47
2021/10/14 05:14:34;;;;;;;46.78;26.08;;;10.40;99.90;;;;;;5068850;28;20051;-48
2021/10/14 05:17:00;;;;;;;39.75;22.77;;;10.40;99.90;;;;;;5068486;28;20029;-48
2021/10/14 05:19:25;;;;;;;44.42;23.50;;;10.40;99.90;;;;;;5068854;28;20108;-48
2021/10/14 05:21:53;;;;;;;43.45;24.13;;;10.40;99.90;;;;;;5068784;28;20501;-49
2021/10/14 05:24:19;;;;;;;45.13;23.80;;;10.40;99.90;;;;;;5068038;28;20035;-49
2021/10/14 05:26:44;;;;;;;47.25;25.95;;;10.40;99.90;;;;;;5068336;28;20040;-47
2021/10/14 05:29:10;;;;;;;49.40;26.30;;;10.40;99.90;;;;;;5066878;28;20037;-47
2021/10/14 05:31:35;;;;;;;52.03;27.15;;;10.50;99.90;;;;;;5068695;28;20466;-47
2021/10/14 05:34:01;;;;;;;59.22;28.27;;;10.50;99.90;;;;;;5068495;28;20036;-48
2021/10/14 05:36:26;;;;;;;54.38;28.50;;;10.50;99.90;;;;;;5068410;28;20052;-47
2021/10/14 05:38:52;;;;;;;62.10;30.83;;;10.50;99.90;;;;;;5067549;28;20033;-48
2021/10/14 05:41:17;;;;;;;58.42;28.98;;;10.50;99.90;;;;;;5068313;28;20039;-48
2021/10/14 05:43:43;;;;;;;73.63;33.83;;;10.50;99.90;;;;;;5068318;28;20036;-47
2021/10/14 05:46:09;;;;;;;70.00;33.60;;;10.50;99.90;;;;;;5068175;28;20048;-48
2021/10/14 05:48:34;;;;;;;66.82;33.55;;;10.50;99.90;;;;;;5067569;28;20039;-47
2021/10/14 05:51:04;;;;;;;82.55;38.22;;;10.50;99.90;;;;;;5068139;28;20433;-47
2021/10/14 05:53:30;;;;;;;71.55;33.95;;;10.60;99.90;;;;;;5067876;28;20075;-47
2021/10/14 05:55:56;;;;;;;86.82;37.30;;;10.50;99.90;;;;;;5067763;28;20064;-48
2021/10/14 05:58:22;;;;;;;82.68;39.75;;;10.60;99.90;;;;;;5067472;28;20064;-48
2021/10/14 06:00:47;;;;;;;82.75;39.05;;;10.60;99.90;;;;;;5067709;28;20458;-47
2021/10/14 06:03:12;;;;;;;83.25;40.25;;;10.60;99.90;;;;;;5068051;28;20494;-47
2021/10/14 06:05:38;;;;;;;84.88;40.33;;;10.60;99.90;;;;;;5067952;28;20044;-47
2021/10/14 06:08:04;;;;;;;82.82;40.17;;;10.70;99.90;;;;;;5067328;28;20053;-49
2021/10/14 06:10:30;;;;;;;97.88;42.80;;;10.60;99.90;;;;;;5067882;28;20057;-49
2021/10/14 06:12:56;;;;;;;95.00;42.42;;;10.60;99.90;;;;;;5067606;28;20037;-47
2021/10/14 06:15:21;;;;;;;90.57;41.63;;;10.60;99.90;;;;;;5067979;28;20039;-47
2021/10/14 06:17:46;;;;;;;85.63;41.50;;;10.70;99.90;;;;;;5067327;28;20234;-48
2021/10/14 06:20:12;;;;;;;101.15;42.53;;;10.60;99.90;;;;;;5049739;28;20548;-50
2021/10/14 06:22:38;;;;;;;85.53;39.25;;;10.70;99.90;;;;;;5067904;28;20064;-49
2021/10/14 06:25:03;;;;;;;94.43;42.58;;;10.70;99.90;;;;;;5067584;28;20044;-46
2021/10/14 06:27:29;;;;;;;95.53;40.72;;;10.70;99.90;;;;;;5067389;28;20439;-47
2021/10/14 06:29:56;;;;;;;91.78;42.83;;;10.70;99.90;;;;;;5067790;28;20029;-49
2021/10/14 06:32:21;;;;;;;86.40;41.40;;;10.70;99.90;;;;;;5049775;28;20359;-47
2021/10/14 06:34:47;;;;;;;87.32;40.22;;;10.80;99.90;;;;;;5067715;28;20037;-48
2021/10/14 06:37:13;;;;;;;86.60;40.72;;;10.70;99.90;;;;;;5049198;28;20561;-48
2021/10/14 06:39:38;;;;;;;90.47;40.90;;;10.80;99.90;;;;;;5068818;28;20035;-46
2021/10/14 06:42:04;;;;;;;95.55;42.38;;;10.70;99.90;;;;;;5071162;28;20089;-47
2021/10/14 06:44:29;;;;;;;79.68;40.67;;;10.80;99.90;;;;;;5071213;28;20048;-48
2021/10/14 06:46:55;;;;;;;84.97;40.67;;;10.80;99.90;;;;;;5071321;28;20060;-47
2021/10/14 06:49:20;;;;;;;86.95;42.15;;;10.80;99.90;;;;;;5070814;28;20033;-48
2021/10/14 06:51:46;;;;;;;88.80;42.08;;;10.80;99.90;;;;;;5071191;28;20043;-47
2021/10/14 06:54:12;;;;;;;83.75;39.47;;;10.80;99.90;;;;;;5070923;28;20103;-48
2021/10/14 06:56:37;;;;;;;81.15;39.00;;;10.80;99.90;;;;;;5071322;28;20043;-47
2021/10/14 06:59:03;;;;;;;84.60;40.60;;;10.80;99.90;;;;;;5070562;28;20585;-45
2021/10/14 07:01:28;;;;;;;89.03;41.28;;;10.90;99.90;;;;;;5070832;28;20160;-45
2021/10/14 07:03:54;;;;;;;87.22;38.38;;;10.90;99.90;;;;;;5071489;28;20044;-49
2021/10/14 07:06:20;;;;;;;86.00;39.90;;;10.90;99.90;;;;;;5070736;28;20441;-47
2021/10/14 07:08:45;;;;;;;81.57;38.97;;;10.90;99.90;;;;;;5069750;28;20031;-47
2021/10/14 07:11:10;;;;;;;79.90;37.85;;;10.90;99.90;;;;;;5070667;28;20044;-49
2021/10/14 07:13:37;;;;;;;88.05;39.50;;;10.90;99.90;;;;;;5052831;28;20425;-46
2021/10/14 07:16:03;;;;;;;78.15;39.60;;;11.00;99.90;;;;;;5070830;28;20035;-46
2021/10/14 07:18:29;;;;;;;84.80;39.28;;;10.90;99.90;;;;;;5070307;28;20033;-46
2021/10/14 07:20:54;;;;;;;79.07;37.15;;;11.00;99.90;;;;;;5052744;28;20405;-47
2021/10/14 07:23:20;;;;;;;72.63;36.58;;;11.00;99.90;;;;;;5070905;28;20036;-46
2021/10/14 07:25:45;;;;;;;85.55;39.33;;;11.00;99.90;;;;;;5070403;28;20650;-46
2021/10/14 07:28:13;;;;;;;81.57;38.70;;;11.00;99.90;;;;;;5035638;28;20040;-46
2021/10/14 07:30:40;;;;;;;71.75;36.08;;;11.10;99.90;;;;;;5070460;28;20033;-45
2021/10/14 07:33:06;;;;;;;80.32;36.22;;;11.10;99.90;;;;;;5070360;28;20377;-46
2021/10/14 07:35:37;;;;;;;84.32;38.05;;;11.10;99.90;;;;;;5052514;28;20029;-45
2021/10/14 07:38:04;;;;;;;77.53;39.17;;;11.20;99.90;;;;;;5051774;28;20059;-46
2021/10/14 07:40:34;;;;;;;74.38;40.75;;;11.10;99.90;;;;;;5070045;28;20098;-48
2021/10/14 07:43:03;;;;;;;85.32;39.40;;;11.20;99.90;;;;;;5050422;28;20029;-45
2021/10/14 07:45:28;;;;;;;75.85;37.42;;;11.10;99.90;;;;;;5050414;28;20033;-45
2021/10/14 07:47:54;;;;;;;87.53;40.30;;;11.20;99.90;;;;;;5049506;28;20045;-46
2021/10/14 07:50:19;;;;;;;85.25;40.88;;;11.20;99.90;;;;;;5049892;28;20025;-45
2021/10/14 07:52:45;;;;;;;78.28;38.10;;;11.10;99.90;;;;;;5049454;28;20033;-46
2021/10/14 07:55:10;;;;;;;90.45;41.10;;;11.10;99.90;;;;;;5031926;28;20475;-46
2021/10/14 07:57:36;;;;;;;90.47;40.90;;;11.10;99.90;;;;;;5031821;28;20033;-45
2021/10/14 08:00:04;;;;;;;82.68;38.83;;;11.10;99.90;;;;;;5049772;28;20060;-46
2021/10/14 08:02:30;;;;;;;83.35;38.42;;;11.10;99.90;;;;;;5049787;28;20036;-46
2021/10/14 08:04:55;;;;;;;80.50;40.40;;;11.10;99.90;;;;;;5031881;28;20044;-48
2021/10/14 08:07:22;;;;;;;80.75;42.47;;;11.20;99.90;;;;;;5049178;28;20054;-48
2021/10/14 08:09:48;;;;;;;74.35;38.75;;;11.20;99.90;;;;;;5041097;28;20032;-49
2021/10/14 08:12:14;;;;;;;80.13;37.60;;;11.20;99.90;;;;;;5051652;28;20033;-48
2021/10/14 08:14:39;;;;;;;75.22;37.25;;;11.20;99.90;;;;;;5051828;28;20051;-48
2021/10/14 08:17:05;;;;;;;80.07;39.53;;;11.20;99.90;;;;;;5068934;28;20032;-50
2021/10/14 08:19:30;;;;;;;83.85;38.80;;;11.20;99.90;;;;;;5069662;28;20086;-50
2021/10/14 08:21:56;;;;;;;78.30;38.15;;;11.20;99.90;;;;;;5069935;28;20222;-47
2021/10/14 08:24:21;;;;;;;76.30;37.38;;;11.20;99.90;;;;;;5069491;28;20032;-48
2021/10/14 08:26:47;;;;;;;69.18;35.03;;;11.20;99.90;;;;;;5069624;28;20067;-47
2021/10/14 08:29:12;;;;;;;82.20;38.83;;;11.20;99.90;;;;;;5068939;28;20068;-50
2021/10/14 08:31:38;;;;;;;78.32;38.00;;;11.20;99.90;;;;;;5051447;28;20090;-50
2021/10/14 08:34:03;;;;;;;76.30;38.83;;;11.20;99.90;;;;;;5069594;28;20036;-48
2021/10/14 08:36:29;;;;;;;72.60;38.22;;;11.30;99.90;;;;;;5051568;28;20032;-50
2021/10/14 08:38:55;;;;;;;74.35;38.00;;;11.30;99.90;;;;;;5068792;28;20032;-47
2021/10/14 08:41:21;;;;;;;71.50;35.92;;;11.40;99.90;;;;;;5069099;28;20041;-46
2021/10/14 08:43:48;;;;;;;69.55;37.53;;;11.30;99.90;;;;;;5069147;28;20084;-47
2021/10/14 08:46:14;;;;;;;62.75;35.10;;;11.40;99.90;;;;;;5069635;28;20035;-46
2021/10/14 08:48:39;;;;;;;69.95;37.85;;;11.40;99.90;;;;;;5068457;28;20058;-50
2021/10/14 08:51:05;;;;;;;65.60;34.75;;;11.40;99.90;;;;;;5069049;28;20530;-47
2021/10/14 08:53:31;;;;;;;69.78;34.45;;;11.40;99.90;;;;;;5068981;28;20075;-48
2021/10/14 08:55:56;;;;;;;65.45;36.60;;;11.40;99.90;;;;;;5067833;28;20486;-47
2021/10/14 08:58:22;;;;;;;64.28;34.75;;;11.50;99.90;;;;;;5067925;28;20040;-48
2021/10/14 09:01:22;;;;;;;59.40;34.33;;;11.50;99.90;;;;;;5068619;28;20075;-46
2021/10/14 09:03:49;;;;;;;56.13;32.38;;;11.40;99.90;;;;;;4967320;28;20085;-47
2021/10/14 09:06:17;;;;;;;55.03;31.13;;;11.50;99.90;;;;;;5048174;28;20108;-47
2021/10/14 09:08:45;;;;;;;51.75;30.33;;;11.40;99.90;;;;;;5068036;28;20024;-47
2021/10/14 09:11:16;;;;;;;48.97;30.15;;;11.40;99.90;;;;;;5061782;28;20040;-47
2021/10/14 09:13:50;;;;;;;52.70;29.42;;;11.50;99.90;;;;;;5068032;28;20039;-47
2021/10/14 09:16:37;;;;;;;58.35;33.00;;;11.40;99.90;;;;;;5068769;28;20048;-47
2021/10/14 09:19:14;;;;;;;50.28;31.10;;;11.50;99.90;;;;;;5067486;28;20031;-48
2021/10/14 09:21:44;;;;;;;48.08;30.33;;;11.50;99.90;;;;;;5068142;28;20035;-47
2021/10/14 09:24:26;;;;;;;49.47;29.58;;;11.50;99.90;;;;;;5068602;28;20037;-47
2021/10/14 09:26:51;;;;;;;47.58;30.50;;;11.60;99.90;;;;;;5050367;28;20374;-48
2021/10/14 09:29:20;;;;;;;44.92;29.58;;;11.60;99.90;;;;;;5049740;28;20035;-47
2021/10/14 09:31:51;;;;;;;51.22;31.00;;;11.70;99.90;;;;;;5068076;28;20048;-48
2021/10/14 09:34:26;;;;;;;47.97;28.95;;;11.70;99.90;;;;;;5080661;28;20032;-46
2021/10/14 09:36:52;;;;;;;49.28;29.83;;;11.70;99.90;;;;;;5088453;28;20032;-48
2021/10/14 09:39:19;;;;;;;48.78;29.33;;;11.70;99.90;;;;;;5061417;28;20091;-46
2021/10/14 09:41:45;;;;;;;49.25;29.50;;;11.70;99.90;;;;;;5066437;28;20075;-46
2021/10/14 09:44:16;;;;;;;48.20;29.63;;;11.70;99.90;;;;;;5067943;28;20033;-46
2021/10/14 09:46:44;;;;;;;48.83;30.98;;;11.70;99.90;;;;;;5068159;28;20025;-46
2021/10/14 09:49:40;;;;;;;47.83;29.02;;;11.70;99.90;;;;;;5067852;28;20056;-46
2021/10/14 09:52:06;;;;;;;48.05;28.33;;;11.70;99.90;;;;;;5063850;28;20055;-48
2021/10/14 09:54:31;;;;;;;42.47;27.13;;;11.60;99.90;;;;;;5068209;28;20386;-47
2021/10/14 09:56:57;;;;;;;45.53;27.80;;;11.70;99.90;;;;;;5068307;28;20337;-50
2021/10/14 09:59:23;;;;;;;39.10;25.80;;;11.70;99.90;;;;;;5067608;28;20037;-47
2021/10/14 10:01:52;;;;;;;45.75;25.77;;;11.60;99.90;;;;;;5068249;28;20090;-47
2021/10/14 10:04:23;;;;;;;41.65;24.63;;;11.70;99.90;;;;;;5068129;28;20115;-47
2021/10/14 10:06:49;;;;;;;;;;;11.70;99.90;;;;;;5050178;28;20068;-49
2021/10/14 10:09:18;;;;;;;37.75;23.02;;;11.60;99.90;;;;;;5067163;28;20187;-48
2021/10/14 10:11:47;;;;;;;33.67;23.20;;;11.70;99.90;;;;;;5049824;28;20037;-47
2021/10/14 10:14:13;;;;;;;33.22;21.13;;;11.60;99.90;;;;;;5067999;28;20461;-48
2021/10/14 10:17:11;;;;;;;41.72;22.02;;;11.60;99.90;;;;;;5071898;28;20032;-50
2021/10/14 10:19:46;;;;;;;38.63;21.73;;;11.60;99.90;;;;;;5072396;28;20032;-49
2021/10/14 10:22:35;;;;;;;29.17;20.15;;;11.60;99.90;;;;;;5072193;28;20036;-47
2021/10/14 10:25:34;;;;;;;28.77;19.30;;;11.60;99.90;;;;;;5071696;28;20106;-47
2021/10/14 10:28:02;;;;;;;32.25;19.90;;;11.70;99.90;;;;;;5071792;28;20036;-50
2021/10/14 10:30:35;;;;;;;30.98;18.95;;;11.60;99.90;;;;;;5071518;28;20112;-46
2021/10/14 10:33:02;;;;;;;26.60;18.08;;;11.70;99.90;;;;;;5071871;28;20040;-47
2021/10/14 10:35:45;;;;;;;35.85;20.52;;;11.70;99.90;;;;;;5071759;28;20047;-49
2021/10/14 10:38:18;;;;;;;29.38;19.63;;;11.80;99.90;;;;;;5070914;28;20094;-47
2021/10/14 10:40:48;;;;;;;29.75;19.63;;;11.70;99.90;;;;;;5071493;28;20032;-48
2021/10/14 10:43:29;;;;;;;32.97;19.83;;;11.80;99.90;;;;;;5071508;28;20036;-47
2021/10/14 10:45:57;;;;;;;30.00;19.65;;;11.90;99.90;;;;;;5052948;28;20060;-49
2021/10/14 10:48:44;;;;;;;33.17;21.02;;;12.00;99.90;;;;;;5070513;28;20134;-46
2021/10/14 10:51:26;;;;;;;34.83;19.85;;;12.00;99.90;;;;;;5071251;28;20036;-50
2021/10/14 10:53:52;;;;;;;29.25;19.10;;;12.10;99.90;;;;;;5071454;28;20078;-47
2021/10/14 10:56:31;;;;;;;25.75;17.80;;;12.10;99.90;;;;;;5071228;28;20036;-46
2021/10/14 10:58:57;;;;;;;26.45;17.42;;;12.10;99.90;;;;;;5070060;28;20033;-50
2021/10/14 11:01:23;;;;;;;28.10;17.83;;;12.10;99.90;;;;;;5071047;28;20063;-47
2021/10/14 11:04:00;;;;;;;22.27;15.95;;;12.20;99.90;;;;;;5070775;28;20072;-50
2021/10/14 11:06:29;;;;;;;22.52;15.15;;;12.30;99.90;;;;;;5070915;28;20505;-46
2021/10/14 11:09:15;;;;;;;20.98;15.32;;;12.40;99.90;;;;;;5069874;28;20025;-46
2021/10/14 11:11:41;;;;;;;20.30;14.55;;;12.40;99.90;;;;;;5070615;28;20440;-47
2021/10/14 11:14:06;;;;;;;18.27;12.52;;;12.50;99.90;;;;;;5052697;28;20044;-47
2021/10/14 11:16:32;;;;;;;19.23;11.90;;;12.50;99.90;;;;;;5052835;28;20040;-46
2021/10/14 11:18:59;;;;;;;16.70;13.20;;;12.40;99.90;;;;;;5070116;28;20024;-47
2021/10/14 11:21:26;;;;;;;17.50;12.55;;;12.50;99.90;;;;;;5070829;28;20120;-49
2021/10/14 11:23:57;;;;;;;13.00;10.63;;;12.60;99.90;;;;;;5070852;28;20108;-48
2021/10/14 11:26:43;;;;;;;13.88;10.07;;;12.60;99.90;;;;;;5069238;28;20038;-49
2021/10/14 11:31:54;;;;;;;11.40;8.25;;;12.60;99.90;;;;;;5070642;28;20042;-50
2021/10/14 11:34:22;;;;;;;12.43;8.93;;;12.60;99.90;;;;;;5070547;28;20025;-47
2021/10/14 11:36:54;;;;;;;12.98;8.52;;;12.70;99.90;;;;;;5070385;28;20484;-47
2021/10/14 11:39:22;;;;;;;10.65;7.97;;;12.80;99.90;;;;;;5069544;28;20090;-47
2021/10/14 11:41:56;;;;;;;10.65;8.88;;;12.90;99.90;;;;;;5069957;28;20028;-50
2021/10/14 11:44:25;;;;;;;13.98;9.10;;;13.00;99.90;;;;;;5068957;28;20560;-48
2021/10/14 11:46:51;;;;;;;8.85;7.68;;;13.10;99.90;;;;;;5069839;28;20052;-50
2021/10/14 11:49:16;;;;;;;10.02;8.30;;;13.20;99.90;;;;;;5070229;28;20118;-47
2021/10/14 11:51:42;;;;;;;10.15;8.25;;;13.30;99.90;;;;;;5069878;28;20033;-47
2021/10/14 11:54:12;;;;;;;10.30;8.27;;;13.50;99.90;;;;;;5070060;28;20095;-47
2021/10/14 11:56:52;;;;;;;9.90;7.43;;;13.70;99.90;;;;;;5069653;28;20042;-47
2021/10/14 11:59:23;;;;;;;9.55;7.50;;;14.10;99.90;;;;;;5069566;28;20031;-47
2021/10/14 12:01:58;;;;;;;9.38;7.00;;;14.10;99.90;;;;;;5070347;28;20037;-48
2021/10/14 12:04:27;;;;;;;10.60;7.55;;;14.10;99.90;;;;;;5069358;28;20107;-47
2021/10/14 12:06:54;;;;;;;14.07;7.13;;;14.10;99.90;;;;;;5069110;28;20573;-47
2021/10/14 12:09:20;;;;;;;10.90;7.20;;;14.00;99.90;;;;;;5065834;28;20032;-48
2021/10/14 12:11:46;;;;;;;10.25;7.97;;;14.00;99.90;;;;;;5067867;28;20021;-49
2021/10/14 12:14:11;;;;;;;13.18;7.78;;;13.90;99.90;;;;;;5069861;28;20033;-47
2021/10/14 12:16:37;;;;;;;13.65;8.07;;;13.90;99.90;;;;;;5069493;28;20270;-47
2021/10/14 12:19:17;;;;;;;11.10;8.30;;;13.80;99.90;;;;;;5069118;28;20072;-50
2021/10/14 12:21:45;;;;;;;13.02;8.63;;;13.70;99.90;;;;;;5069602;28;20025;-46
2021/10/14 12:24:23;;;;;;;12.45;7.35;;;13.70;99.90;;;;;;5069509;28;20227;-47
2021/10/14 12:26:54;;;;;;;11.13;7.25;;;13.60;99.90;;;;;;5069131;28;20033;-50
2021/10/14 12:29:24;;;;;;;;;;;13.60;99.90;;;;;;5069755;28;20036;-48
2021/10/14 12:32:13;;;;;;;10.88;7.97;;;13.60;99.90;;;;;;5069337;28;19999;-49
2021/10/14 12:34:53;;;;;;;12.55;8.45;;;13.70;99.90;;;;;;5069403;28;20044;-46
2021/10/14 12:37:24;;;;;;;9.90;7.68;;;13.70;99.90;;;;;;5065937;28;20139;-49
2021/10/14 12:40:29;;;;;;;11.20;7.72;;;13.90;99.90;;;;;;5050731;28;20124;-47